Time;durP1;ratioP1;P1;durP2;ratioP2;P2;SDS_P1;SDS_P2;PMS_P1;PMS_P2;Temp;Humidity;BMP_temperature;BMP_pressure;BME280_temperature;BME280_humidity;BME280_pressure;Samples;Min_cycle;Max_cycle;Signal;HPM_P1;HPM_P2
2022/09/16 00:00:15;;;;;;;2.10;1.10;;;;;;;;;;4975478;28;20311;-51
2022/09/16 00:02:42;;;;;;;3.20;1.27;;;;;;;;;;4988295;28;20752;-54
2022/09/16 00:05:09;;;;;;;2.47;1.50;;;;;;;;;;4985369;28;20284;-52
2022/09/16 00:07:35;;;;;;;3.53;1.20;;;;;;;;;;4978337;28;20304;-55
2022/09/16 00:10:03;;;;;;;3.93;1.40;;;;;;;;;;4978749;28;20724;-50
2022/09/16 00:12:29;;;;;;;2.27;1.00;;;;;;;;;;4977712;28;20229;-56
2022/09/16 00:14:55;;;;;;;1.30;0.83;;;;;;;;;;4959753;28;20205;-55
2022/09/16 00:17:22;;;;;;;1.50;1.20;;;;;;;;;;4987141;28;20308;-52
2022/09/16 00:19:49;;;;;;;1.20;1.00;;;;;;;;;;4980611;28;20288;-52
2022/09/16 00:22:17;;;;;;;3.10;1.40;;;;;;;;;;4986349;28;20316;-53
2022/09/16 00:24:43;;;;;;;4.13;1.00;;;;;;;;;;4980532;28;20240;-54
2022/09/16 00:27:10;;;;;;;3.37;1.37;;;;;;;;;;4981721;28;20772;-53
2022/09/16 00:29:36;;;;;;;3.40;1.20;;;;;;;;;;4986028;28;20211;-52
2022/09/16 00:32:03;;;;;;;2.93;1.23;;;;;;;;;;4986753;28;20244;-51
2022/09/16 00:34:29;;;;;;;3.37;1.23;;;;;;;;;;4987800;28;20284;-51
2022/09/16 00:36:55;;;;;;;3.67;1.00;;;;;;;;;;4986579;28;20256;-53
2022/09/16 00:39:22;;;;;;;2.80;1.20;;;;;;;;;;4985873;28;20640;-53
2022/09/16 00:41:48;;;;;;;3.07;1.23;;;;;;;;;;4990671;28;20231;-50
2022/09/16 00:44:52;;;;;;;2.33;1.17;;;;;;;;;;4984385;28;20256;-49
2022/09/16 00:47:36;;;;;;;4.07;1.10;;;;;;;;;;4986347;28;20260;-51
2022/09/16 00:50:21;;;;;;;6.10;1.30;;;;;;;;;;4965817;28;20639;-51
2022/09/16 00:52:49;;;;;;;6.03;1.20;;;;;;;;;;4990506;28;20236;-54
2022/09/16 00:55:21;;;;;;;3.70;1.30;;;;;;;;;;4969995;28;20201;-53
2022/09/16 00:57:48;;;;;;;2.33;1.20;;;;;;;;;;4971712;28;20307;-50
2022/09/16 01:00:15;;;;;;;3.67;2.13;;;;;;;;;;4985101;28;20289;-51
2022/09/16 01:02:42;;;;;;;2.37;1.10;;;;;;;;;;4984985;28;20303;-52
2022/09/16 01:05:17;;;;;;;2.27;1.10;;;;;;;;;;4969615;28;20198;-51
2022/09/16 01:07:47;;;;;;;2.70;1.30;;;;;;;;;;4988105;28;20255;-51
2022/09/16 01:10:17;;;;;;;2.20;1.00;;;;;;;;;;4969672;28;20696;-54
2022/09/16 01:12:46;;;;;;;3.87;1.10;;;;;;;;;;4962503;28;20653;-53
2022/09/16 01:15:15;;;;;;;2.27;1.20;;;;;;;;;;4987454;28;20304;-55
2022/09/16 01:17:57;;;;;;;3.37;1.10;;;;;;;;;;4972795;28;20307;-54
2022/09/16 01:20:48;;;;;;;1.83;1.27;;;;;;;;;;4983814;28;20193;-52
2022/09/16 01:23:33;;;;;;;2.03;0.97;;;;;;;;;;4965601;28;20252;-51
2022/09/16 01:26:41;;;;;;;5.20;1.33;;;;;;;;;;4987553;28;20291;-54
2022/09/16 01:29:38;;;;;;;3.87;1.10;;;;;;;;;;4986181;28;20284;-55
2022/09/16 01:32:13;;;;;;;2.13;1.07;;;;;;;;;;4966036;28;20221;-54
2022/09/16 01:35:03;;;;;;;2.77;1.00;;;;;;;;;;4969842;28;20235;-54
2022/09/16 01:37:59;;;;;;;3.33;1.03;;;;;;;;;;4979283;28;20280;-54
2022/09/16 01:40:33;;;;;;;2.70;0.90;;;;;;;;;;4956839;28;20287;-53
2022/09/16 01:43:17;;;;;;;3.07;0.87;;;;;;;;;;4966871;28;20317;-55
2022/09/16 01:45:55;;;;;;;1.97;1.00;;;;;;;;;;4984548;28;20291;-54
2022/09/16 01:48:34;;;;;;;4.10;0.97;;;;;;;;;;4968770;28;20311;-55
2022/09/16 01:51:16;;;;;;;2.20;0.90;;;;;;;;;;4983997;28;20288;-54
2022/09/16 01:53:53;;;;;;;1.13;0.83;;;;;;;;;;4959325;28;20640;-54
2022/09/16 01:56:25;;;;;;;3.53;1.00;;;;;;;;;;4969435;28;20653;-55
2022/09/16 01:58:58;;;;;;;2.27;1.00;;;;;;;;;;4965434;28;20279;-56
2022/09/16 02:01:32;;;;;;;3.47;1.10;;;;;;;;;;4966338;28;20292;-55
2022/09/16 02:04:04;;;;;;;2.63;1.10;;;;;;;;;;4969754;28;20224;-54
2022/09/16 02:06:32;;;;;;;3.00;0.87;;;;;;;;;;4961772;28;20248;-54
2022/09/16 02:09:12;;;;;;;1.70;0.90;;;;;;;;;;4968761;28;20237;-53
2022/09/16 02:11:39;;;;;;;2.97;1.10;;;;;;;;;;4960411;28;20296;-53
2022/09/16 02:14:10;;;;;;;4.10;1.10;;;;;;;;;;4957679;28;20256;-55
2022/09/16 02:16:41;;;;;;;2.00;0.90;;;;;;;;;;4960429;28;20228;-54
2022/09/16 02:19:14;;;;;;;3.03;1.00;;;;;;;;;;4968266;28;20201;-52
2022/09/16 02:21:41;;;;;;;2.80;1.10;;;;;;;;;;4967838;28;20709;-54
2022/09/16 02:24:15;;;;;;;3.03;0.80;;;;;;;;;;4984090;28;20276;-56
2022/09/16 02:26:45;;;;;;;3.13;0.77;;;;;;;;;;4967116;28;20308;-53
2022/09/16 02:29:25;;;;;;;1.20;0.90;;;;;;;;;;4957748;28;20303;-54
2022/09/16 02:31:54;;;;;;;2.73;1.00;;;;;;;;;;4956344;28;20565;-55
2022/09/16 02:34:26;;;;;;;2.67;0.97;;;;;;;;;;4959185;28;20685;-54
2022/09/16 02:36:55;;;;;;;1.60;1.00;;;;;;;;;;4958484;28;20228;-54
2022/09/16 02:39:28;;;;;;;3.93;1.00;;;;;;;;;;4959481;28;20402;-55
2022/09/16 02:41:55;;;;;;;2.67;0.73;;;;;;;;;;4965009;28;20280;-54
2022/09/16 02:44:23;;;;;;;2.87;1.00;;;;;;;;;;4958092;28;20283;-54
2022/09/16 02:46:56;;;;;;;4.37;1.17;;;;;;;;;;4987836;28;20213;-53
2022/09/16 02:49:28;;;;;;;3.43;1.20;;;;;;;;;;4969242;28;20284;-54
2022/09/16 02:52:05;;;;;;;2.57;1.00;;;;;;;;;;4977807;28;20287;-53
2022/09/16 02:54:40;;;;;;;1.40;0.80;;;;;;;;;;4970369;28;20275;-54
2022/09/16 02:57:07;;;;;;;3.07;1.03;;;;;;;;;;4968230;28;20302;-54
2022/09/16 02:59:34;;;;;;;2.40;0.93;;;;;;;;;;4979261;28;20277;-55
2022/09/16 03:02:00;;;;;;;2.27;0.90;;;;;;;;;;4970551;28;20300;-55
2022/09/16 03:04:27;;;;;;;2.63;1.00;;;;;;;;;;4981056;28;20218;-54
2022/09/16 03:06:54;;;;;;;2.17;1.00;;;;;;;;;;4984085;28;20307;-52
2022/09/16 03:09:22;;;;;;;1.73;0.87;;;;;;;;;;4981356;28;20258;-54
2022/09/16 03:12:04;;;;;;;4.97;1.40;;;;;;;;;;4981316;28;20267;-54
2022/09/16 03:15:02;;;;;;;1.30;0.90;;;;;;;;;;4964589;28;20302;-53
2022/09/16 03:17:55;;;;;;;2.43;1.13;;;;;;;;;;4957713;28;20355;-55
2022/09/16 03:20:40;;;;;;;3.33;0.93;;;;;;;;;;4974402;28;20285;-52
2022/09/16 03:23:24;;;;;;;2.03;0.90;;;;;;;;;;4981497;28;20691;-54
2022/09/16 03:26:06;;;;;;;1.43;0.90;;;;;;;;;;4974541;28;20284;-54
2022/09/16 03:28:39;;;;;;;2.47;0.90;;;;;;;;;;4960527;28;20257;-55
2022/09/16 03:31:08;;;;;;;1.93;0.83;;;;;;;;;;4964243;28;20190;-54
2022/09/16 03:34:11;;;;;;;1.33;1.00;;;;;;;;;;4958406;28;20197;-55
2022/09/16 03:36:44;;;;;;;2.17;1.00;;;;;;;;;;4944707;28;20311;-54
2022/09/16 03:39:11;;;;;;;3.20;1.00;;;;;;;;;;4957135;28;20284;-54
2022/09/16 03:41:38;;;;;;;3.87;1.77;;;;;;;;;;4965116;28;20481;-55
2022/09/16 03:44:04;;;;;;;1.93;1.10;;;;;;;;;;4955019;28;20308;-54
2022/09/16 03:46:31;;;;;;;1.97;1.00;;;;;;;;;;4979572;28;20307;-53
2022/09/16 03:48:58;;;;;;;2.10;1.27;;;;;;;;;;4987447;28;20196;-53
2022/09/16 03:51:25;;;;;;;4.77;1.13;;;;;;;;;;4983035;28;20637;-53
2022/09/16 03:53:51;;;;;;;1.90;1.30;;;;;;;;;;4975806;28;20280;-54
2022/09/16 03:56:18;;;;;;;4.90;1.37;;;;;;;;;;4977120;28;20202;-54
2022/09/16 03:58:47;;;;;;;1.77;1.10;;;;;;;;;;4977013;28;20756;-54
2022/09/16 04:01:13;;;;;;;4.00;1.53;;;;;;;;;;4979359;28;20288;-55
2022/09/16 04:03:41;;;;;;;3.67;1.20;;;;;;;;;;4986912;28;20216;-53
2022/09/16 04:06:08;;;;;;;4.73;1.40;;;;;;;;;;4984880;28;20275;-50
2022/09/16 04:08:34;;;;;;;2.87;1.30;;;;;;;;;;4959776;28;20233;-54
2022/09/16 04:11:04;;;;;;;5.20;1.40;;;;;;;;;;4985511;28;20292;-54
2022/09/16 04:13:34;;;;;;;2.07;1.10;;;;;;;;;;4981476;28;20244;-54
2022/09/16 04:16:02;;;;;;;2.33;1.20;;;;;;;;;;4988938;28;20264;-55
2022/09/16 04:18:32;;;;;;;3.70;1.40;;;;;;;;;;4977916;28;20232;-55
2022/09/16 04:21:00;;;;;;;2.47;1.30;;;;;;;;;;4974821;28;20284;-53
2022/09/16 04:23:27;;;;;;;4.73;1.40;;;;;;;;;;4988097;28;20312;-55
2022/09/16 04:25:57;;;;;;;3.37;1.57;;;;;;;;;;4987609;28;20201;-54
2022/09/16 04:28:24;;;;;;;5.57;1.57;;;;;;;;;;4991277;28;20263;-54
2022/09/16 04:30:50;;;;;;;4.10;1.00;;;;;;;;;;4982243;28;20285;-54
2022/09/16 04:33:17;;;;;;;3.47;1.50;;;;;;;;;;4983201;28;20197;-54
2022/09/16 04:35:43;;;;;;;5.87;1.40;;;;;;;;;;4981365;28;20228;-54
2022/09/16 04:38:10;;;;;;;4.90;1.30;;;;;;;;;;4978806;28;20304;-54
2022/09/16 04:40:38;;;;;;;3.17;1.30;;;;;;;;;;4980450;28;20288;-54
2022/09/16 04:43:04;;;;;;;2.90;1.47;;;;;;;;;;4978367;28;20289;-56
2022/09/16 04:45:31;;;;;;;2.20;1.20;;;;;;;;;;4978089;28;20229;-55
2022/09/16 04:47:57;;;;;;;3.10;1.50;;;;;;;;;;4976821;28;20312;-54
2022/09/16 04:50:24;;;;;;;4.27;1.40;;;;;;;;;;4991229;28;20236;-53
2022/09/16 04:52:50;;;;;;;4.10;1.40;;;;;;;;;;4991750;28;20287;-54
2022/09/16 04:55:17;;;;;;;5.30;1.50;;;;;;;;;;4990941;28;20276;-54
2022/09/16 04:57:44;;;;;;;2.53;1.50;;;;;;;;;;4990214;28;20300;-56
2022/09/16 05:00:10;;;;;;;3.80;1.40;;;;;;;;;;4987947;28;20249;-54
2022/09/16 05:02:37;;;;;;;3.13;1.50;;;;;;;;;;4988573;28;20283;-54
2022/09/16 05:05:03;;;;;;;6.07;1.60;;;;;;;;;;4990661;28;20767;-54
2022/09/16 05:07:29;;;;;;;5.00;1.50;;;;;;;;;;4983000;28;20212;-54
2022/09/16 05:09:56;;;;;;;2.80;1.33;;;;;;;;;;4989183;28;20292;-55
2022/09/16 05:12:23;;;;;;;2.70;1.20;;;;;;;;;;4987040;28;20267;-55
2022/09/16 05:14:49;;;;;;;3.13;1.47;;;;;;;;;;4992118;28;20261;-54
2022/09/16 05:17:15;;;;;;;4.47;1.57;;;;;;;;;;4974701;28;20756;-54
2022/09/16 05:20:02;;;;;;;2.83;1.27;;;;;;;;;;4990438;28;20222;-51
2022/09/16 05:22:29;;;;;;;2.70;1.30;;;;;;;;;;4989561;28;20205;-54
2022/09/16 05:24:55;;;;;;;6.53;1.70;;;;;;;;;;4986215;28;20792;-51
2022/09/16 05:27:21;;;;;;;3.37;1.30;;;;;;;;;;4990174;28;20221;-52
2022/09/16 05:29:48;;;;;;;2.43;1.43;;;;;;;;;;4983676;28;20300;-52
2022/09/16 05:32:14;;;;;;;5.30;1.83;;;;;;;;;;4986070;28;20197;-54
2022/09/16 05:34:40;;;;;;;3.57;1.40;;;;;;;;;;4991467;28;20307;-53
2022/09/16 05:37:07;;;;;;;4.33;1.40;;;;;;;;;;4976923;28;20624;-54
2022/09/16 05:39:33;;;;;;;3.43;1.40;;;;;;;;;;4979988;28;20666;-53
2022/09/16 05:41:59;;;;;;;5.20;1.50;;;;;;;;;;4978894;28;20292;-53
2022/09/16 05:44:27;;;;;;;2.03;1.40;;;;;;;;;;4957158;28;20308;-53
2022/09/16 05:46:54;;;;;;;4.90;1.43;;;;;;;;;;4976423;28;20279;-52
2022/09/16 05:49:20;;;;;;;3.97;1.50;;;;;;;;;;4980528;28;20244;-52
2022/09/16 05:51:47;;;;;;;3.53;1.47;;;;;;;;;;4983821;28;20592;-51
2022/09/16 05:54:13;;;;;;;1.47;1.20;;;;;;;;;;4983354;28;20279;-52
2022/09/16 05:56:40;;;;;;;4.83;1.40;;;;;;;;;;4986672;28;20308;-51
2022/09/16 05:59:06;;;;;;;3.93;1.30;;;;;;;;;;4984059;28;20211;-55
2022/09/16 06:01:34;;;;;;;4.50;1.40;;;;;;;;;;4975466;28;20288;-55
2022/09/16 06:04:03;;;;;;;2.93;1.40;;;;;;;;;;4980943;28;20313;-52
2022/09/16 06:06:30;;;;;;;4.77;1.50;;;;;;;;;;4987946;28;20308;-55
2022/09/16 06:08:59;;;;;;;2.60;1.40;;;;;;;;;;4986376;28;20498;-55
2022/09/16 06:11:27;;;;;;;2.60;1.20;;;;;;;;;;4954992;28;20296;-52
2022/09/16 06:13:55;;;;;;;3.30;1.50;;;;;;;;;;4957419;28;20288;-55
2022/09/16 06:16:24;;;;;;;5.30;1.53;;;;;;;;;;4987455;28;20736;-53
2022/09/16 06:18:52;;;;;;;3.47;1.70;;;;;;;;;;4988584;28;20236;-54
2022/09/16 06:21:18;;;;;;;5.13;1.63;;;;;;;;;;4988564;28;20200;-55
2022/09/16 06:23:45;;;;;;;4.07;1.50;;;;;;;;;;4975722;28;20296;-54
2022/09/16 06:26:16;;;;;;;2.43;1.20;;;;;;;;;;4964147;28;20201;-53
2022/09/16 06:28:43;;;;;;;3.30;1.30;;;;;;;;;;4982477;28;20680;-54
2022/09/16 06:31:13;;;;;;;4.40;1.33;;;;;;;;;;4966201;28;20729;-55
2022/09/16 06:33:40;;;;;;;5.33;1.40;;;;;;;;;;4971529;28;20632;-55
2022/09/16 06:36:09;;;;;;;3.97;1.33;;;;;;;;;;4984333;28;20225;-55
2022/09/16 06:38:36;;;;;;;3.77;1.37;;;;;;;;;;4977429;28;20228;-53
2022/09/16 06:41:04;;;;;;;2.47;1.43;;;;;;;;;;4982939;28;20283;-54
2022/09/16 06:43:31;;;;;;;5.30;1.77;;;;;;;;;;4983512;28;20287;-57
2022/09/16 06:45:59;;;;;;;2.60;1.50;;;;;;;;;;4984232;28;20311;-53
2022/09/16 06:48:26;;;;;;;2.80;1.40;;;;;;;;;;4985067;28;20718;-54
2022/09/16 06:51:00;;;;;;;4.70;1.50;;;;;;;;;;4986426;28;20412;-54
2022/09/16 06:53:27;;;;;;;4.47;1.27;;;;;;;;;;4987258;28;20211;-49
2022/09/16 06:55:54;;;;;;;4.43;1.50;;;;;;;;;;4988672;28;20208;-55
2022/09/16 06:58:20;;;;;;;2.20;1.23;;;;;;;;;;4985921;28;20312;-52
2022/09/16 07:00:46;;;;;;;4.67;1.30;;;;;;;;;;4980871;28;20295;-51
2022/09/16 07:03:13;;;;;;;5.78;1.27;;;;;;;;;;4984448;28;20292;-53
2022/09/16 07:05:39;;;;;;;2.93;1.37;;;;;;;;;;4983874;28;20319;-51
2022/09/16 07:08:06;;;;;;;4.95;1.38;;;;;;;;;;4976650;28;20316;-53
2022/09/16 07:10:32;;;;;;;6.20;1.20;;;;;;;;;;4977074;28;20291;-55
2022/09/16 07:12:58;;;;;;;5.47;1.23;;;;;;;;;;4983896;28;20291;-53
2022/09/16 07:15:25;;;;;;;4.38;1.20;;;;;;;;;;4974733;28;22470;-55
2022/09/16 07:17:54;;;;;;;3.05;1.70;;;;;;;;;;4980949;28;20319;-55
2022/09/16 07:20:20;;;;;;;2.83;1.30;;;;;;;;;;4983965;28;20203;-54
2022/09/16 07:22:49;;;;;;;2.63;1.20;;;;;;;;;;4976661;28;20231;-55
2022/09/16 07:25:16;;;;;;;5.55;1.40;;;;;;;;;;4981909;28;20225;-54
2022/09/16 07:27:42;;;;;;;7.80;1.20;;;;;;;;;;4965773;28;20224;-52
2022/09/16 07:30:09;;;;;;;3.42;1.20;;;;;;;;;;4984740;28;20686;-54
2022/09/16 07:32:35;;;;;;;4.40;1.02;;;;;;;;;;4984536;28;20284;-52
2022/09/16 07:35:02;;;;;;;5.07;1.23;;;;;;;;;;4956963;28;20199;-54
2022/09/16 07:37:28;;;;;;;1.98;1.10;;;;;;;;;;4980634;28;20223;-51
2022/09/16 07:39:55;;;;;;;4.47;1.10;;;;;;;;;;4984073;28;20294;-53
2022/09/16 07:42:21;;;;;;;4.28;1.08;;;;;;;;;;4979154;28;20567;-52
2022/09/16 07:44:47;;;;;;;8.40;1.00;;;;;;;;;;4979145;28;20299;-50
2022/09/16 07:47:14;;;;;;;3.03;1.10;;;;;;;;;;4981468;28;20808;-53
2022/09/16 07:49:47;;;;;;;4.15;1.10;;;;;;;;;;4985572;28;20292;-50
2022/09/16 07:52:15;;;;;;;6.32;1.25;;;;;;;;;;4983247;28;20654;-51
2022/09/16 07:54:41;;;;;;;15.30;2.05;;;;;;;;;;4979816;28;20307;-54
2022/09/16 07:57:08;;;;;;;5.65;1.20;;;;;;;;;;4982336;28;20683;-50
2022/09/16 07:59:34;;;;;;;2.72;1.10;;;;;;;;;;4977878;28;20293;-50
2022/09/16 08:02:00;;;;;;;4.40;1.10;;;;;;;;;;4979057;28;20285;-51
2022/09/16 08:04:27;;;;;;;2.90;0.98;;;;;;;;;;4983430;28;20225;-52
2022/09/16 08:06:53;;;;;;;4.15;0.95;;;;;;;;;;4979897;28;20784;-53
2022/09/16 08:09:20;;;;;;;2.80;1.55;;;;;;;;;;4978328;28;20235;-54
2022/09/16 08:12:09;;;;;;;3.90;0.85;;;;;;;;;;4985161;28;20715;-49
2022/09/16 08:14:36;;;;;;;2.78;1.00;;;;;;;;;;4975393;28;20280;-50
2022/09/16 08:17:02;;;;;;;3.38;1.10;;;;;;;;;;4983007;28;20217;-54
2022/09/16 08:19:29;;;;;;;3.47;1.15;;;;;;;;;;4984037;28;20201;-52
2022/09/16 08:21:55;;;;;;;2.95;0.90;;;;;;;;;;4983388;28;20211;-52
2022/09/16 08:24:21;;;;;;;2.20;0.75;;;;;;;;;;4978728;28;20222;-50
2022/09/16 08:26:48;;;;;;;4.03;1.00;;;;;;;;;;4970975;28;20221;-53
2022/09/16 08:29:14;;;;;;;9.52;1.65;;;;;;;;;;4979814;28;20287;-53
2022/09/16 08:31:41;;;;;;;2.15;0.85;;;;;;;;;;4985793;28;20554;-51
2022/09/16 08:34:08;;;;;;;2.00;0.75;;;;;;;;;;4977441;28;20209;-52
2022/09/16 08:36:34;;;;;;;2.70;1.05;;;;;;;;;;4972199;28;20304;-51
2022/09/16 08:39:00;;;;;;;2.92;0.93;;;;;;;;;;4980786;28;20284;-51
2022/09/16 08:42:04;;;;;;;1.98;0.80;;;;;;;;;;4983159;28;20679;-53
2022/09/16 08:44:45;;;;;;;2.92;0.90;;;;;;;;;;4975141;28;20320;-56
2022/09/16 08:47:34;;;;;;;2.25;0.98;;;;;;;;;;4978272;28;20317;-54
2022/09/16 08:50:04;;;;;;;5.35;0.90;;;;;;;;;;4984326;28;20201;-55
2022/09/16 08:52:35;;;;;;;2.17;0.75;;;;;;;;;;4982859;28;20233;-56
2022/09/16 08:55:07;;;;;;;2.88;1.10;;;;;;;;;;4963077;28;20260;-56
2022/09/16 08:57:38;;;;;;;2.55;0.82;;;;;;;;;;4962583;28;20219;-56
2022/09/16 09:00:13;;;;;;;4.95;1.13;;;;;;;;;;4982740;28;20216;-54
2022/09/16 09:03:00;;;;;;;1.90;1.00;;;;;;;;;;4962654;28;20200;-54
2022/09/16 09:05:48;;;;;;;1.80;0.88;;;;;;;;;;4959685;28;20849;-54
2022/09/16 09:08:17;;;;;;;3.50;1.52;;;;;;;;;;4980076;28;20252;-54
2022/09/16 09:10:58;;;;;;;1.88;1.10;;;;;;;;;;4981027;28;20634;-51
2022/09/16 09:13:32;;;;;;;2.15;0.90;;;;;;;;;;4980020;28;20201;-51
2022/09/16 09:16:06;;;;;;;2.28;1.00;;;;;;;;;;4977598;28;20201;-54
2022/09/16 09:19:04;;;;;;;2.22;0.98;;;;;;;;;;4967411;28;20611;-54
2022/09/16 09:21:40;;;;;;;3.10;0.95;;;;;;;;;;4978599;28;20207;-53
2022/09/16 09:24:20;;;;;;;2.65;0.80;;;;;;;;;;4963362;28;20279;-52
2022/09/16 09:26:51;;;;;;;2.38;1.17;;;;;;;;;;4977658;28;20217;-52
2022/09/16 09:29:24;;;;;;;5.22;2.13;;;;;;;;;;4977932;28;20646;-53
2022/09/16 09:31:59;;;;;;;2.67;0.95;;;;;;;;;;4960001;28;20202;-53
2022/09/16 09:34:37;;;;;;;1.17;0.82;;;;;;;;;;4960388;28;20307;-53
2022/09/16 09:37:28;;;;;;;2.90;0.90;;;;;;;;;;4967658;28;20226;-54
2022/09/16 09:40:07;;;;;;;3.83;1.00;;;;;;;;;;4959303;28;20287;-55
2022/09/16 09:42:42;;;;;;;3.47;1.00;;;;;;;;;;4964627;28;20713;-53
2022/09/16 09:45:31;;;;;;;2.53;0.93;;;;;;;;;;4967854;28;20327;-56
2022/09/16 09:48:04;;;;;;;3.20;0.75;;;;;;;;;;4986206;28;20229;-56
2022/09/16 09:50:42;;;;;;;2.72;0.80;;;;;;;;;;4985700;28;20320;-52
2022/09/16 09:53:28;;;;;;;4.13;0.95;;;;;;;;;;4971275;28;20276;-54
2022/09/16 09:56:07;;;;;;;1.65;0.80;;;;;;;;;;4989658;28;20211;-55
2022/09/16 09:58:38;;;;;;;2.45;0.80;;;;;;;;;;4988862;28;20424;-53
2022/09/16 10:01:05;;;;;;;3.75;1.05;;;;;;;;;;4982659;28;20197;-53
2022/09/16 10:03:31;;;;;;;2.50;1.00;;;;;;;;;;4989243;28;20201;-52
2022/09/16 10:05:58;;;;;;;2.30;1.00;;;;;;;;;;4987449;28;20220;-55
2022/09/16 10:08:28;;;;;;;3.53;1.17;;;;;;;;;;4987587;28;20760;-53
2022/09/16 10:11:00;;;;;;;3.40;1.05;;;;;;;;;;4987907;28;20208;-53
2022/09/16 10:13:32;;;;;;;3.05;1.08;;;;;;;;;;4972237;28;20229;-52
2022/09/16 10:16:13;;;;;;;3.70;1.30;;;;;;;;;;4971492;28;20219;-55
2022/09/16 10:18:39;;;;;;;1.75;0.82;;;;;;;;;;4987030;28;20771;-51
2022/09/16 10:21:09;;;;;;;3.10;1.08;;;;;;;;;;4988902;28;20296;-52
2022/09/16 10:23:37;;;;;;;4.22;1.10;;;;;;;;;;4983102;28;20279;-56
2022/09/16 10:26:18;;;;;;;2.38;1.00;;;;;;;;;;4987977;28;20658;-56
2022/09/16 10:28:57;;;;;;;3.95;1.08;;;;;;;;;;4982496;28;20236;-51
2022/09/16 10:31:26;;;;;;;4.38;1.00;;;;;;;;;;4986677;28;20307;-53
2022/09/16 10:33:58;;;;;;;3.97;1.50;;;;;;;;;;4987228;28;21058;-53
2022/09/16 10:36:33;;;;;;;3.80;1.10;;;;;;;;;;4988215;28;20287;-50
2022/09/16 10:39:01;;;;;;;2.53;1.20;;;;;;;;;;4983771;28;20284;-52
2022/09/16 10:41:41;;;;;;;2.95;1.00;;;;;;;;;;4984986;28;20669;-53
2022/09/16 10:44:28;;;;;;;2.55;0.95;;;;;;;;;;4968762;28;20235;-53
2022/09/16 10:46:59;;;;;;;4.10;0.80;;;;;;;;;;4960633;28;20256;-53
2022/09/16 10:49:42;;;;;;;3.25;0.82;;;;;;;;;;4965188;28;20193;-55
2022/09/16 10:52:15;;;;;;;1.67;0.70;;;;;;;;;;4965629;28;20200;-56
2022/09/16 10:54:42;;;;;;;3.53;0.80;;;;;;;;;;4964645;28;20295;-53
2022/09/16 10:57:40;;;;;;;1.92;0.60;;;;;;;;;;4974726;28;20655;-54
2022/09/16 11:00:19;;;;;;;3.33;0.82;;;;;;;;;;4962855;28;20201;-53
2022/09/16 11:03:06;;;;;;;2.50;0.95;;;;;;;;;;4977481;28;20295;-51
2022/09/16 11:05:32;;;;;;;2.15;0.80;;;;;;;;;;4980080;28;20744;-51
2022/09/16 11:08:09;;;;;;;2.72;0.90;;;;;;;;;;4978485;28;20658;-54
2022/09/16 11:11:00;;;;;;;4.43;0.95;;;;;;;;;;4963396;28;20295;-52
2022/09/16 11:14:01;;;;;;;2.40;0.70;;;;;;;;;;4964965;28;20291;-53
2022/09/16 11:16:34;;;;;;;1.92;0.98;;;;;;;;;;4924039;28;20633;-56
2022/09/16 11:19:15;;;;;;;1.92;0.65;;;;;;;;;;4980058;28;20224;-54
2022/09/16 11:21:54;;;;;;;3.95;1.02;;;;;;;;;;4966349;28;20284;-54
2022/09/16 11:24:53;;;;;;;2.13;0.80;;;;;;;;;;4982637;28;20661;-53
2022/09/16 11:27:42;;;;;;;2.25;0.75;;;;;;;;;;4936923;28;20319;-56
2022/09/16 11:30:12;;;;;;;2.47;0.70;;;;;;;;;;4983511;28;20667;-55
2022/09/16 11:32:57;;;;;;;3.63;0.70;;;;;;;;;;4966231;28;20287;-54
2022/09/16 11:35:45;;;;;;;3.30;0.70;;;;;;;;;;4956725;28;20280;-55
2022/09/16 11:38:24;;;;;;;1.75;0.60;;;;;;;;;;4973668;28;20768;-55
2022/09/16 11:41:09;;;;;;;2.35;0.70;;;;;;;;;;4956710;28;20208;-55
2022/09/16 11:43:51;;;;;;;2.05;0.60;;;;;;;;;;4975623;28;20292;-56
2022/09/16 11:46:35;;;;;;;1.23;0.73;;;;;;;;;;4978384;28;20216;-51
2022/09/16 11:49:15;;;;;;;1.73;0.60;;;;;;;;;;4970725;28;20616;-51
2022/09/16 11:52:09;;;;;;;3.90;0.60;;;;;;;;;;4982206;28;20300;-51
2022/09/16 11:55:03;;;;;;;1.33;0.73;;;;;;;;;;4973485;28;20653;-52
2022/09/16 11:57:38;;;;;;;0.80;0.50;;;;;;;;;;4978539;28;20300;-52
2022/09/16 12:00:09;;;;;;;3.45;0.60;;;;;;;;;;4973353;28;20279;-55
2022/09/16 12:02:42;;;;;;;3.15;0.80;;;;;;;;;;4953749;28;20209;-53
2022/09/16 12:05:17;;;;;;;0.73;0.60;;;;;;;;;;4977918;28;20661;-51
2022/09/16 12:07:53;;;;;;;3.88;0.70;;;;;;;;;;4967702;28;20547;-51
2022/09/16 12:10:23;;;;;;;1.25;0.50;;;;;;;;;;4987498;28;20367;-51
2022/09/16 12:13:11;;;;;;;2.67;0.68;;;;;;;;;;4985898;28;20283;-50
2022/09/16 12:15:46;;;;;;;1.20;0.50;;;;;;;;;;4980228;28;20232;-56
2022/09/16 12:18:17;;;;;;;0.85;0.60;;;;;;;;;;4980254;28;20261;-51
2022/09/16 12:20:48;;;;;;;0.95;0.60;;;;;;;;;;4969518;28;20300;-52
2022/09/16 12:23:24;;;;;;;2.33;0.75;;;;;;;;;;4971960;28;20736;-51
2022/09/16 12:26:10;;;;;;;1.40;0.60;;;;;;;;;;4991444;28;20307;-51
2022/09/16 12:28:53;;;;;;;1.80;0.60;;;;;;;;;;4972763;28;20283;-51
2022/09/16 12:31:28;;;;;;;0.50;0.50;;;;;;;;;;4983520;28;20288;-51
2022/09/16 12:34:03;;;;;;;1.63;0.63;;;;;;;;;;4973754;28;20215;-52
2022/09/16 12:36:32;;;;;;;2.38;0.60;;;;;;;;;;4974604;28;20311;-53
2022/09/16 12:38:59;;;;;;;1.48;0.70;;;;;;;;;;4964385;28;20261;-50
2022/09/16 12:41:38;;;;;;;1.13;0.60;;;;;;;;;;4990777;28;20292;-53
2022/09/16 12:44:29;;;;;;;2.25;0.75;;;;;;;;;;4981474;28;20280;-53
2022/09/16 12:47:30;;;;;;;0.80;0.60;;;;;;;;;;4982342;28;20622;-51
2022/09/16 12:50:40;;;;;;;1.30;0.70;;;;;;;;;;4968336;28;20204;-55
2022/09/16 12:53:31;;;;;;;0.50;0.50;;;;;;;;;;4989494;28;20673;-52
2022/09/16 12:56:07;;;;;;;1.63;0.55;;;;;;;;;;4987189;28;20285;-51
2022/09/16 12:58:52;;;;;;;0.77;0.50;;;;;;;;;;4990305;28;20267;-52
2022/09/16 13:01:32;;;;;;;0.82;0.70;;;;;;;;;;4989120;28;20201;-51
2022/09/16 13:04:08;;;;;;;2.25;0.80;;;;;;;;;;4970249;28;20420;-54
2022/09/16 13:06:38;;;;;;;2.78;0.60;;;;;;;;;;4962120;28;20525;-53
2022/09/16 13:09:39;;;;;;;0.52;0.40;;;;;;;;;;4984872;28;20284;-51
2022/09/16 13:12:18;;;;;;;1.17;0.55;;;;;;;;;;4960596;28;20209;-55
2022/09/16 13:15:05;;;;;;;0.77;0.52;;;;;;;;;;4977145;28;20216;-54
2022/09/16 13:17:37;;;;;;;0.85;0.50;;;;;;;;;;4989398;28;20221;-52
2022/09/16 13:20:19;;;;;;;3.03;0.60;;;;;;;;;;4986768;28;20296;-51
2022/09/16 13:22:54;;;;;;;0.75;0.50;;;;;;;;;;4987860;28;20204;-52
2022/09/16 13:25:25;;;;;;;0.73;0.50;;;;;;;;;;4990518;28;20287;-52
2022/09/16 13:28:21;;;;;;;0.50;0.50;;;;;;;;;;4987411;28;21169;-52
2022/09/16 13:30:47;;;;;;;0.90;0.60;;;;;;;;;;4984582;28;20649;-51
2022/09/16 13:33:13;;;;;;;1.40;0.60;;;;;;;;;;4988994;28;20201;-52
2022/09/16 13:35:41;;;;;;;1.40;0.70;;;;;;;;;;4990163;28;20315;-53
2022/09/16 13:38:38;;;;;;;1.08;0.55;;;;;;;;;;4981478;28;20735;-54
2022/09/16 13:41:05;;;;;;;0.68;0.60;;;;;;;;;;4974443;28;20651;-52
2022/09/16 13:43:47;;;;;;;1.23;0.60;;;;;;;;;;4963134;28;20292;-55
2022/09/16 13:46:31;;;;;;;1.92;0.60;;;;;;;;;;4981455;28;20636;-51
2022/09/16 13:49:03;;;;;;;1.30;0.60;;;;;;;;;;4977654;28;20205;-54
2022/09/16 13:51:32;;;;;;;1.75;0.80;;;;;;;;;;4980611;28;20292;-53
2022/09/16 13:54:03;;;;;;;0.60;0.52;;;;;;;;;;4966703;28;20192;-51
2022/09/16 13:56:50;;;;;;;1.20;0.50;;;;;;;;;;4966047;28;20227;-52
2022/09/16 13:59:46;;;;;;;2.03;0.88;;;;;;;;;;4982159;28;20657;-54
2022/09/16 14:02:18;;;;;;;0.68;0.60;;;;;;;;;;4981523;28;20593;-54
2022/09/16 14:05:00;;;;;;;1.33;0.70;;;;;;;;;;4962322;28;20565;-55
2022/09/16 14:07:46;;;;;;;1.40;0.63;;;;;;;;;;4963278;28;20324;-55
2022/09/16 14:10:28;;;;;;;0.75;0.57;;;;;;;;;;4981769;28;20284;-55
2022/09/16 14:13:15;;;;;;;1.50;0.55;;;;;;;;;;4982227;28;20292;-56
2022/09/16 14:15:48;;;;;;;0.65;0.50;;;;;;;;;;4981206;28;20284;-53
2022/09/16 14:18:19;;;;;;;2.55;0.98;;;;;;;;;;4957299;28;20229;-54
2022/09/16 14:21:00;;;;;;;0.85;0.45;;;;;;;;;;4966909;28;20677;-51
2022/09/16 14:23:28;;;;;;;1.13;0.60;;;;;;;;;;4976945;28;20283;-54
2022/09/16 14:25:54;;;;;;;0.40;0.40;;;;;;;;;;4987181;28;20315;-55
2022/09/16 14:28:26;;;;;;;1.10;0.50;;;;;;;;;;4978851;28;20709;-53
2022/09/16 14:31:06;;;;;;;1.33;0.52;;;;;;;;;;4977845;28;20683;-53
2022/09/16 14:33:40;;;;;;;5.53;0.93;;;;;;;;;;4963462;28;20224;-54
2022/09/16 14:36:12;;;;;;;1.63;0.63;;;;;;;;;;4978451;28;20291;-52
2022/09/16 14:38:51;;;;;;;2.78;0.70;;;;;;;;;;4960773;28;20300;-54
2022/09/16 14:41:24;;;;;;;1.23;0.65;;;;;;;;;;4974201;28;20595;-54
2022/09/16 14:43:51;;;;;;;0.90;0.68;;;;;;;;;;4960541;28;20292;-54
2022/09/16 14:46:18;;;;;;;1.27;0.60;;;;;;;;;;4974663;28;20804;-54
2022/09/16 14:48:45;;;;;;;2.50;0.60;;;;;;;;;;4975415;28;20220;-53
2022/09/16 14:51:22;;;;;;;0.77;0.40;;;;;;;;;;4975048;28;20336;-55
2022/09/16 14:53:58;;;;;;;1.30;0.80;;;;;;;;;;4975026;28;20292;-50
2022/09/16 14:56:41;;;;;;;1.23;0.50;;;;;;;;;;4974513;28;20212;-54
2022/09/16 14:59:10;;;;;;;2.15;0.80;;;;;;;;;;4972357;28;20207;-56
2022/09/16 15:01:36;;;;;;;0.57;0.57;;;;;;;;;;4957185;28;20254;-57
2022/09/16 15:04:08;;;;;;;2.75;0.60;;;;;;;;;;4977935;28;20202;-53
2022/09/16 15:06:40;;;;;;;1.08;0.60;;;;;;;;;;4961248;28;20217;-52
2022/09/16 15:09:18;;;;;;;3.20;0.82;;;;;;;;;;4975027;28;20805;-53
2022/09/16 15:11:49;;;;;;;2.17;0.70;;;;;;;;;;4976677;28;20593;-52
2022/09/16 15:14:16;;;;;;;1.58;0.65;;;;;;;;;;4964416;28;20295;-53
2022/09/16 15:16:51;;;;;;;1.75;0.60;;;;;;;;;;4969468;28;20638;-53
2022/09/16 15:19:24;;;;;;;0.50;0.40;;;;;;;;;;4971466;28;20205;-54